PINE FLAT DAM (PNF)

Elevation: 970' · KINGS R basin · Operator: US Army Corps of Engineers

Provisional data, subject to change.
Query executed Tuesday at 5:09:42   clock

Select a sensor type for a plot of data.
Note: Reservoir Flows are daily averages.

Earlier

Date RES ELE    STORAGE    RES CHG    TOC STO    ABV TOC    OUTFLOW    INFLOW    FNF    PPT INC    PPTINC4    TEMP MN    TEMP MX    WINDLEN    EVP PAN   
 FEET   AF   AF   AF   AF   CFS   CFS   CFS   INCHES   INCHES   DEG F   DEG F   MILES   INCHES  
03/01/2015 743.27 161279 830 822727 -661448 117 542 629 0.00 0.00 -- -- 49 0.10
03/02/2015 743.62 162066 787 825682 -663616 118 519 601 0.14 0.00 -- -- 41 0.06
03/03/2015 743.96 162833 767 828636 -665803 118 512 559 0.00 0.14 -- -- 53 0.12
03/04/2015 744.27 163534 701 831591 -668057 116 478 540 0.00 0.00 -- -- 46 0.12
03/05/2015 744.56 164191 657 834545 -670354 119 459 538 0.00 0.00 -- -- 51 0.13
03/06/2015 744.86 164872 681 837500 -672628 122 474 520 0.00 0.00 -- -- 37 0.13
03/07/2015 745.15 165532 660 840454 -674922 122 464 523 0.00 0.00 -- -- 41 0.14
03/08/2015 745.41 166125 593 843409 -677284 122 444 482 e 0.00 0.00 -- -- 42 0.14
03/09/2015 745.70 166787 662 846364 -679577 122 465 481 e 0.00 0.00 -- -- 35 0.14
03/10/2015 745.97 167405 618 849318 -681913 122 443 556 0.00 0.00 -- -- 35 0.15
03/11/2015 746.27 168093 688 852273 -684180 120 472 538 0.00 0.00 -- -- 35 0.07
03/12/2015 746.56 168760 667 855227 -686467 127 473 582 0.00 0.00 -- -- 48 0.14
03/13/2015 746.81 169336 576 858182 -688846 137 438 540 0.00 0.00 -- -- 40 0.16
03/14/2015 747.09 169982 646 861136 -691154 138 474 635 0.00 0.00 -- -- 35 0.17
03/15/2015 747.39 170675 693 864091 -693416 144 504 684 0.00 0.00 -- -- 35 0.16
03/16/2015 747.77 171556 881 867045 -695489 147 600 807 0.00 0.00 -- -- 37 0.14
03/17/2015 748.22 172602 1046 870000 -697398 164 698 841 0.00 0.00 -- -- 25 0.10
03/18/2015 748.60 173488 -- 872954 -699466 165 621 822 0.00 0.00 -- -- 39 0.15
03/19/2015 748.99 174400 912 875909 -701509 169 640 733 0.00 0.00 -- -- 44 0.17
03/20/2015 749.33 175197 797 878864 -703667 175 587 750 0.00 0.00 -- -- 38 0.15
03/21/2015 749.65 175949 752 881818 -705869 175 565 699 0.00 0.00 -- -- 37 0.16
03/22/2015 749.95 176655 706 884773 -708118 177 543 657 0.00 0.00 -- -- 41 0.15
03/23/2015 750.26 177387 732 887727 -710340 178 558 681 0.00 0.00 -- -- 48 0.16
03/24/2015 750.54 178049 662 890682 -712633 181 523 673 0.00 0.00 -- -- 38 0.13
03/25/2015 750.80 178665 616 893636 -714971 182 504 659 0.00 0.00 -- -- 38 0.17
03/26/2015 751.12 179424 759 896591 -717167 180 576 757 0.00 0.00 -- -- 46 0.20
03/27/2015 751.49 180305 881 899545 -719240 180 638 886 0.00 0.00 -- -- 46 0.21
03/28/2015 -- -- -- -- -- -- -- 1021 -- 0.00 -- -- -- --
03/29/2015 -- 182624 e -- -- -- -- -- 1019 -- 0.00 -- -- -- --
03/30/2015 -- -- -- -- -- -- -- -- -- 0.00 -- -- -- --
03/31/2015 -- -- -- -- -- -- -- -- -- -- -- -- -- --

Later | Latest

Warning! This data is preliminary and subject to revision.

Show PNF Map | Plot PNF Data | 1 Month PNF Data | Real-Time PNF Data | PNF Info